Time;durP1;ratioP1;P1;durP2;ratioP2;P2;SDS_P1;SDS_P2;PMS_P1;PMS_P2;Temp;Humidity;BMP_temperature;BMP_pressure;BME280_temperature;BME280_humidity;BME280_pressure;Samples;Min_cycle;Max_cycle;Signal;HPM_P1;HPM_P2
2023/01/26 00:12:41;;;;;;;37.65;28.70;;;25.50;99.90;;;;;;4970823;28;20070;-70
2023/01/26 00:15:47;;;;;;;54.42;36.35;;;25.60;99.90;;;;;;4931546;29;20078;-70
2023/01/26 00:21:23;;;;;;;41.75;28.00;;;25.60;99.90;;;;;;4783686;30;20464;-70
2023/01/26 00:23:51;;;;;;;37.35;22.42;;;25.60;99.90;;;;;;4783606;30;20067;-70
2023/01/26 00:26:37;;;;;;;31.88;21.33;;;25.60;99.90;;;;;;4784699;30;20036;-70
2023/01/26 00:38:17;;;;;;;32.10;20.73;;;25.50;99.90;;;;;;5060154;27;2110982;-69
2023/01/26 00:46:56;;;;;;;36.22;22.05;;;25.60;99.90;;;;;;4783661;30;20039;-69
2023/01/26 00:49:42;;;;;;;36.08;22.10;;;25.70;99.90;;;;;;4775688;30;20491;-69
2023/01/26 01:21:07;;;;;;;216.68;109.68;;;25.80;99.90;;;;;;4864773;29;20045;-69
2023/01/26 01:23:53;;;;;;;62.13;28.27;;;25.80;99.90;;;;;;4864425;29;20094;-68
2023/01/26 01:26:40;;;;;;;33.80;18.33;;;25.80;99.90;;;;;;4809147;29;20691;-67
2023/01/26 01:29:06;;;;;;;42.03;25.00;;;25.90;99.90;;;;;;4819112;29;20034;-69
2023/01/26 01:45:17;;;;;;;30.60;17.50;;;26.00;99.90;;;;;;5090198;28;20439;-66
2023/01/26 01:47:43;;;;;;;34.00;19.38;;;26.00;99.90;;;;;;5051121;28;20514;-67
2023/01/26 01:53:40;;;;;;;25.52;17.55;;;26.00;99.90;;;;;;5008694;28;20041;-67
2023/01/26 01:56:47;;;;;;;25.40;16.85;;;26.10;99.90;;;;;;4925689;29;20079;-67
2023/01/26 01:59:33;;;;;;;25.30;16.77;;;26.10;99.90;;;;;;4867090;29;20034;-67
2023/01/26 02:08:12;;;;;;;36.28;20.58;;;26.20;99.90;;;;;;5111575;27;20392;-66
2023/01/26 02:10:59;;;;;;;86.15;55.85;;;26.30;99.90;;;;;;5111233;28;20111;-67
2023/01/26 02:13:26;;;;;;;91.78;61.28;;;26.30;99.90;;;;;;5088715;28;20093;-66
2023/01/26 02:16:13;;;;;;;63.67;41.58;;;26.50;99.90;;;;;;5088481;28;20036;-67
2023/01/26 02:19:00;;;;;;;27.95;17.58;;;26.50;99.90;;;;;;5048221;28;20033;-67
2023/01/26 02:24:36;;;;;;;35.50;21.02;;;26.60;99.90;;;;;;4950508;29;20035;-67
2023/01/26 02:27:02;;;;;;;63.63;39.17;;;26.70;99.90;;;;;;4893565;29;20040;-67
2023/01/26 02:29:29;;;;;;;49.33;26.55;;;26.70;99.90;;;;;;4893608;29;20143;-67
2023/01/26 02:31:56;;;;;;;42.35;23.45;;;26.80;99.90;;;;;;4893386;29;20092;-68
2023/01/26 02:34:42;;;;;;;32.63;19.98;;;26.80;99.90;;;;;;4893147;29;20417;-66
2023/01/26 02:43:27;;;;;;;27.92;15.23;;;27.00;99.90;;;;;;4837062;29;20041;-68
2023/01/26 02:52:07;;;;;;;33.38;18.65;;;27.00;99.90;;;;;;4764664;30;20056;-68
2023/01/26 03:10:58;;;;;;;35.38;18.58;;;27.30;99.90;;;;;;5194367;27;20373;-67
2023/01/26 03:35:24;;;;;;;32.40;15.55;;;27.40;99.90;;;;;;5192459;27;20841;-72
2023/01/26 03:38:11;;;;;;;41.72;20.20;;;27.50;99.90;;;;;;5066794;28;20595;-71
2023/01/26 03:56:43;;;;;;;32.97;14.63;;;27.40;99.90;;;;;;5194176;27;20357;-74
2023/01/26 04:24:39;;;;;;;32.78;14.70;;;27.70;99.90;;;;;;5048406;28;20084;-71
2023/01/26 04:29:52;;;;;;;28.88;12.23;;;27.80;99.90;;;;;;4939076;29;20059;-74
2023/01/26 04:32:39;;;;;;;28.73;15.45;;;27.90;99.90;;;;;;4936242;29;20035;-75
2023/01/26 04:35:26;;;;;;;32.92;15.27;;;27.90;99.90;;;;;;4912146;29;20100;-71
2023/01/26 04:38:12;;;;;;;31.10;14.55;;;27.90;99.90;;;;;;4856282;29;20445;-70
2023/01/26 04:40:39;;;;;;;30.20;15.25;;;28.00;99.90;;;;;;4855490;29;20046;-71
2023/01/26 04:58:42;;;;;;;34.35;16.65;;;28.20;99.90;;;;;;4940203;29;20036;-71
2023/01/26 05:23:08;;;;;;;36.28;18.60;;;28.60;99.90;;;;;;5185541;27;20362;-70
2023/01/26 05:35:34;;;;;;;22.70;10.65;;;28.90;99.90;;;;;;4791766;29;20106;-69
2023/01/26 05:47:45;;;;;;;19.70;9.70;;;28.80;99.90;;;;;;5031659;27;2606666;-70
2023/01/26 05:50:31;;;;;;;25.52;11.32;;;28.80;99.90;;;;;;5099442;28;20036;-69
2023/01/26 05:53:18;;;;;;;21.40;10.00;;;28.90;99.90;;;;;;5006550;28;20066;-70
2023/01/26 05:59:11;;;;;;;15.98;8.32;;;29.00;99.90;;;;;;4894764;29;20029;-70
2023/01/26 06:01:38;;;;;;;12.98;7.20;;;28.90;99.90;;;;;;4846157;29;20041;-70
2023/01/26 06:04:25;;;;;;;26.20;8.80;;;28.90;99.90;;;;;;4847197;29;20503;-68
2023/01/26 06:06:53;;;;;;;27.88;15.23;;;29.00;99.90;;;;;;4782596;30;20182;-72
2023/01/26 06:12:47;;;;;;;29.55;15.65;;;29.00;99.90;;;;;;4701757;30;20038;-70
2023/01/26 06:31:28;;;;;;;24.08;12.18;;;28.90;99.90;;;;;;4864510;29;20038;-72
2023/01/26 06:42:50;;;;;;;25.02;10.60;;;28.90;99.90;;;;;;5058328;27;2025788;-72
2023/01/26 06:48:43;;;;;;;20.90;10.65;;;29.00;99.90;;;;;;4977385;28;20061;-72
2023/01/26 06:54:56;;;;;;;15.85;8.80;;;29.00;99.90;;;;;;4864120;29;20021;-72
2023/01/26 06:57:22;;;;;;;24.55;9.18;;;29.00;99.90;;;;;;4836545;29;20039;-73
2023/01/26 07:00:29;;;;;;;19.20;9.95;;;29.00;99.90;;;;;;4836500;29;20027;-73
2023/01/26 07:12:52;;;;;;;33.45;15.35;;;29.00;99.90;;;;;;4987274;28;20027;-73
2023/01/26 07:15:19;;;;;;;28.70;12.30;;;29.10;99.90;;;;;;4911018;29;20419;-72
2023/01/26 07:18:05;;;;;;;29.15;12.80;;;29.10;99.90;;;;;;4911319;29;20132;-72
2023/01/26 07:23:58;;;;;;;28.42;12.75;;;29.10;99.90;;;;;;4805296;29;20043;-75
2023/01/26 07:31:58;;;;;;;26.70;13.23;;;29.20;99.90;;;;;;4747500;30;20037;-73
2023/01/26 07:40:50;;;;;;;26.00;12.60;;;29.20;99.90;;;;;;5194242;27;20805;-74
2023/01/26 07:43:37;;;;;;;18.58;10.00;;;29.20;99.90;;;;;;4988987;28;20125;-74
2023/01/26 07:51:56;;;;;;;26.60;13.98;;;29.30;99.90;;;;;;4876024;29;20033;-71
2023/01/26 07:54:23;;;;;;;32.92;14.20;;;29.30;99.90;;;;;;4873527;29;20476;-72
2023/01/26 07:56:53;;;;;;;29.17;13.02;;;29.30;99.90;;;;;;4873777;29;20041;-73
2023/01/26 08:29:00;;;;;;;29.65;15.98;;;29.40;99.90;;;;;;4930412;29;20119;-71
2023/01/26 08:44:09;;;;;;;31.95;15.23;;;29.60;99.90;;;;;;4453547;27;19364753;-68
2023/01/26 08:46:35;;;;;;;39.22;15.00;;;29.60;99.90;;;;;;5068160;28;20536;-70
2023/01/26 08:49:02;;;;;;;27.58;13.82;;;29.60;99.90;;;;;;5066667;28;20048;-70
2023/01/26 08:54:54;;;;;;;29.13;11.73;;;29.60;99.90;;;;;;5006497;28;20116;-80
2023/01/26 08:58:01;;;;;;;25.23;12.70;;;29.60;99.90;;;;;;4987786;28;20041;-74
2023/01/26 09:00:28;;;;;;;26.33;13.23;;;29.50;99.90;;;;;;4836642;29;20081;-76
2023/01/26 09:08:37;;;;;;;28.52;13.43;;;29.60;99.90;;;;;;4835232;29;20050;-77
2023/01/26 09:17:33;;;;;;;28.13;14.07;;;29.60;99.90;;;;;;5041174;27;2656418;-74
2023/01/26 09:33:07;;;;;;;39.38;18.75;;;29.40;99.90;;;;;;5826465;22;20062;-73
2023/01/26 09:35:34;;;;;;;42.13;19.92;;;29.40;99.90;;;;;;5041581;28;20030;-74
2023/01/26 09:38:01;;;;;;;31.13;16.55;;;29.40;99.90;;;;;;5043318;28;20026;-74
2023/01/26 09:40:30;;;;;;;30.15;14.43;;;29.30;99.90;;;;;;5037714;28;20018;-74
2023/01/26 09:43:21;;;;;;;23.80;13.45;;;29.30;99.90;;;;;;5030252;28;20029;-75
2023/01/26 09:46:19;;;;;;;21.80;12.05;;;29.30;99.90;;;;;;5042042;28;20104;-76
2023/01/26 09:48:51;;;;;;;37.50;18.48;;;29.30;99.90;;;;;;5049945;28;20029;-73
2023/01/26 09:51:47;;;;;;;43.15;18.95;;;29.30;99.90;;;;;;5049777;28;20052;-74
2023/01/26 09:54:50;;;;;;;36.38;18.45;;;29.30;99.90;;;;;;5045954;28;20378;-74
2023/01/26 09:57:38;;;;;;;43.42;25.25;;;29.30;99.90;;;;;;5049875;28;20082;-75
2023/01/26 10:00:27;;;;;;;42.13;22.75;;;29.30;99.90;;;;;;5049303;28;20037;-75
2023/01/26 10:03:16;;;;;;;44.70;22.25;;;29.40;99.90;;;;;;5035873;28;20064;-74
2023/01/26 10:06:14;;;;;;;41.28;20.92;;;29.40;99.90;;;;;;5049681;28;20025;-73
2023/01/26 10:08:44;;;;;;;38.40;18.63;;;29.40;99.90;;;;;;5049072;28;20041;-73
2023/01/26 10:11:20;;;;;;;44.08;20.63;;;29.40;99.90;;;;;;5049510;28;20053;-74
2023/01/26 10:13:54;;;;;;;35.45;18.00;;;29.30;99.90;;;;;;5049349;28;20025;-74
2023/01/26 10:16:23;;;;;;;32.55;17.60;;;29.30;99.90;;;;;;5031556;28;20362;-74
2023/01/26 10:19:03;;;;;;;37.30;18.02;;;29.30;99.90;;;;;;5049370;28;20100;-68
2023/01/26 10:21:37;;;;;;;28.50;14.05;;;29.20;99.90;;;;;;5049233;28;20025;-71
2023/01/26 10:24:04;;;;;;;36.53;16.13;;;29.20;99.90;;;;;;5049372;28;20029;-72
2023/01/26 10:26:32;;;;;;;24.60;11.68;;;29.20;99.90;;;;;;5043735;28;20025;-70
2023/01/26 10:29:00;;;;;;;23.67;11.18;;;29.20;99.90;;;;;;5031747;28;20071;-71
2023/01/26 10:31:31;;;;;;;25.98;10.57;;;29.10;99.90;;;;;;5034506;28;20021;-73
2023/01/26 10:34:13;;;;;;;20.27;11.65;;;29.20;99.90;;;;;;5034197;28;20045;-70
2023/01/26 10:36:41;;;;;;;25.85;13.43;;;29.10;99.90;;;;;;5034308;28;20377;-72
2023/01/26 10:39:10;;;;;;;30.40;15.15;;;29.10;99.90;;;;;;5034265;28;20079;-73
2023/01/26 10:41:38;;;;;;;34.95;18.27;;;29.20;99.90;;;;;;5034264;28;20678;-72
2023/01/26 10:44:31;;;;;;;32.97;19.13;;;29.10;99.90;;;;;;5032134;28;20116;-73
2023/01/26 10:47:10;;;;;;;160.82;122.50;;;29.10;99.90;;;;;;5025908;28;20079;-74
2023/01/26 10:49:36;;;;;;;91.38;52.08;;;29.20;99.90;;;;;;5035301;28;20022;-73
2023/01/26 10:52:18;;;;;;;60.78;31.55;;;29.10;99.90;;;;;;5035510;28;20024;-74
2023/01/26 10:54:50;;;;;;;47.23;28.33;;;29.10;99.90;;;;;;5035263;28;20053;-74
2023/01/26 10:57:32;;;;;;;225.85;123.80;;;29.10;99.90;;;;;;5034340;28;20254;-73
2023/01/26 11:00:21;;;;;;;149.93;76.63;;;29.10;99.90;;;;;;5032483;28;20076;-73
2023/01/26 11:03:01;;;;;;;68.20;33.05;;;29.10;99.90;;;;;;5030810;28;20490;-72
2023/01/26 11:05:28;;;;;;;75.00;39.17;;;29.10;99.90;;;;;;5031350;28;20028;-72
2023/01/26 11:08:05;;;;;;;53.40;24.10;;;29.10;99.90;;;;;;5033819;28;20105;-72
2023/01/26 11:10:50;;;;;;;180.75;76.82;;;29.00;99.90;;;;;;5031321;28;20033;-72
2023/01/26 11:13:19;;;;;;;110.05;50.38;;;29.00;99.90;;;;;;5032079;28;20489;-73
2023/01/26 11:15:48;;;;;;;75.43;34.88;;;29.00;99.90;;;;;;5033413;28;20521;-73
2023/01/26 11:18:36;;;;;;;73.13;37.20;;;29.00;99.90;;;;;;5033621;28;20045;-72
2023/01/26 11:21:38;;;;;;;65.60;35.47;;;29.00;99.90;;;;;;5032655;28;20018;-72
2023/01/26 11:24:39;;;;;;;59.10;34.17;;;29.00;99.90;;;;;;5020241;28;20183;-72
2023/01/26 11:27:31;;;;;;;75.23;38.80;;;28.90;99.90;;;;;;5033514;28;20060;-73
2023/01/26 11:30:22;;;;;;;75.75;39.90;;;28.90;99.90;;;;;;5034752;28;20254;-73
2023/01/26 11:33:40;;;;;;;68.50;38.20;;;28.90;99.90;;;;;;5034387;28;20045;-72
2023/01/26 11:36:09;;;;;;;61.17;37.33;;;28.80;99.90;;;;;;4990820;28;20049;-72
2023/01/26 11:38:40;;;;;;;141.68;88.72;;;28.80;99.90;;;;;;5033786;28;20429;-73
2023/01/26 11:41:29;;;;;;;71.65;39.22;;;28.80;99.90;;;;;;5034229;28;20065;-73
2023/01/26 11:44:07;;;;;;;88.47;46.53;;;28.80;99.90;;;;;;5034469;28;20036;-74
2023/01/26 11:46:45;;;;;;;58.63;31.58;;;28.80;99.90;;;;;;5034402;28;20473;-72
2023/01/26 11:49:53;;;;;;;48.08;25.42;;;28.80;99.90;;;;;;5034339;28;20018;-72
2023/01/26 11:52:33;;;;;;;45.35;24.10;;;28.80;99.90;;;;;;5031997;28;20037;-71
2023/01/26 11:55:18;;;;;;;39.17;22.42;;;28.70;99.90;;;;;;5019899;28;20164;-72
2023/01/26 11:58:12;;;;;;;41.30;20.92;;;28.70;99.90;;;;;;5031382;28;20018;-73
2023/01/26 12:00:59;;;;;;;35.63;18.55;;;28.70;99.90;;;;;;5033965;28;20021;-73
2023/01/26 12:03:43;;;;;;;35.50;19.05;;;28.70;99.90;;;;;;5032313;28;20018;-73
2023/01/26 12:06:19;;;;;;;34.20;17.38;;;28.70;99.90;;;;;;5032624;28;20027;-73
2023/01/26 12:08:52;;;;;;;39.30;21.02;;;28.70;99.90;;;;;;5031728;28;20091;-73
2023/01/26 12:11:44;;;;;;;35.28;19.48;;;28.70;99.90;;;;;;5033760;28;20454;-72
2023/01/26 12:14:18;;;;;;;39.97;20.13;;;28.60;99.90;;;;;;5032270;28;20080;-72
2023/01/26 12:17:04;;;;;;;41.95;22.08;;;28.60;99.90;;;;;;5031057;28;20033;-69
2023/01/26 12:19:31;;;;;;;169.85;118.90;;;28.60;99.90;;;;;;5032312;28;20375;-69
2023/01/26 12:22:10;;;;;;;427.52;322.92;;;28.60;99.90;;;;;;5033458;28;20021;-70
2023/01/26 12:24:44;;;;;;;178.93;119.57;;;28.60;99.90;;;;;;5033527;28;20025;-70
2023/01/26 12:27:34;;;;;;;62.03;36.50;;;28.50;99.90;;;;;;5032901;28;20033;-69
2023/01/26 12:30:15;;;;;;;43.35;23.45;;;28.50;99.90;;;;;;5030376;28;20060;-69
2023/01/26 12:32:42;;;;;;;38.95;19.38;;;28.50;99.90;;;;;;5030831;28;20520;-70
2023/01/26 12:35:11;;;;;;;35.13;19.20;;;28.50;99.90;;;;;;5033040;28;20029;-69
2023/01/26 12:37:46;;;;;;;32.15;18.20;;;28.50;99.90;;;;;;5030512;28;20103;-71
2023/01/26 12:40:17;;;;;;;35.97;19.25;;;28.40;99.90;;;;;;5033568;28;20033;-70
2023/01/26 12:42:47;;;;;;;37.25;18.85;;;28.50;99.90;;;;;;5033524;28;20469;-71
2023/01/26 12:45:20;;;;;;;39.78;20.67;;;28.40;99.90;;;;;;5033111;28;20112;-70
2023/01/26 12:47:54;;;;;;;39.45;20.42;;;28.40;99.90;;;;;;5033279;28;20080;-69
2023/01/26 12:50:34;;;;;;;91.18;61.60;;;28.40;99.90;;;;;;5030594;28;20076;-69
2023/01/26 12:53:29;;;;;;;74.55;43.85;;;28.30;99.90;;;;;;5030523;28;20048;-70
2023/01/26 12:56:26;;;;;;;137.75;83.15;;;28.40;99.90;;;;;;5032198;28;20021;-71
2023/01/26 12:58:56;;;;;;;48.03;23.38;;;28.30;99.90;;;;;;5032105;28;20379;-70
2023/01/26 13:01:27;;;;;;;34.03;17.52;;;28.30;99.90;;;;;;5032863;28;20067;-70
2023/01/26 13:03:58;;;;;;;29.93;16.77;;;28.30;99.90;;;;;;5032882;28;20501;-70
2023/01/26 13:06:26;;;;;;;34.35;16.33;;;28.20;99.90;;;;;;5032373;28;20494;-70
2023/01/26 13:09:25;;;;;;;38.80;18.38;;;28.20;99.90;;;;;;5032808;28;20108;-69
2023/01/26 13:11:57;;;;;;;37.85;19.20;;;28.20;99.90;;;;;;5031836;28;20104;-71
2023/01/26 13:14:32;;;;;;;34.33;19.63;;;28.20;99.90;;;;;;5030695;28;20053;-70
2023/01/26 13:17:18;;;;;;;42.35;20.50;;;28.20;99.90;;;;;;5029847;28;20488;-69
2023/01/26 13:19:44;;;;;;;38.65;19.17;;;28.20;99.90;;;;;;5027868;28;20017;-71
2023/01/26 13:22:23;;;;;;;43.53;20.95;;;28.10;99.90;;;;;;5029738;28;20021;-70
2023/01/26 13:24:57;;;;;;;55.10;22.85;;;28.10;99.90;;;;;;5031216;28;20522;-71
2023/01/26 13:27:56;;;;;;;41.42;21.15;;;28.10;99.90;;;;;;5029996;28;20020;-70
2023/01/26 13:30:23;;;;;;;40.13;21.23;;;28.10;99.90;;;;;;5002668;28;20470;-68
2023/01/26 13:32:51;;;;;;;40.25;20.98;;;28.10;99.90;;;;;;5031988;28;20489;-71
2023/01/26 13:35:24;;;;;;;31.05;19.10;;;28.10;99.90;;;;;;5032144;28;20021;-72
2023/01/26 13:38:20;;;;;;;39.72;19.08;;;28.10;99.90;;;;;;5032069;28;20014;-71
2023/01/26 13:40:49;;;;;;;34.75;18.88;;;28.10;99.90;;;;;;5000349;28;20060;-72
2023/01/26 13:43:41;;;;;;;36.13;19.73;;;28.10;99.90;;;;;;5027900;28;20022;-71
2023/01/26 13:46:28;;;;;;;38.55;19.98;;;28.10;99.90;;;;;;5030876;28;20382;-68
2023/01/26 13:48:56;;;;;;;36.80;20.15;;;28.10;99.90;;;;;;5016273;28;20528;-69
2023/01/26 13:51:32;;;;;;;34.30;19.70;;;28.10;99.90;;;;;;5027641;28;20438;-68
2023/01/26 13:54:06;;;;;;;31.70;19.30;;;28.00;99.90;;;;;;5027895;28;20049;-70
2023/01/26 13:56:41;;;;;;;35.10;18.52;;;28.00;99.90;;;;;;5029868;28;20025;-71
2023/01/26 13:59:13;;;;;;;38.97;19.25;;;28.00;99.90;;;;;;5030189;28;20033;-69
2023/01/26 14:01:47;;;;;;;36.97;19.27;;;28.10;99.90;;;;;;5030662;28;20105;-69
2023/01/26 14:04:17;;;;;;;41.00;22.88;;;28.10;99.90;;;;;;5035739;28;20017;-69
2023/01/26 14:06:55;;;;;;;35.63;22.10;;;28.00;99.90;;;;;;5036569;28;20029;-70
2023/01/26 14:09:22;;;;;;;37.03;22.85;;;28.00;99.90;;;;;;5034987;28;20032;-69
2023/01/26 14:12:00;;;;;;;39.83;22.92;;;28.00;99.90;;;;;;5035962;28;20032;-71
2023/01/26 14:14:30;;;;;;;37.25;22.13;;;28.00;99.90;;;;;;5036555;28;20470;-71
2023/01/26 14:16:58;;;;;;;39.28;21.38;;;27.90;99.90;;;;;;5036380;28;20104;-71
2023/01/26 14:19:26;;;;;;;39.63;22.02;;;27.80;99.90;;;;;;5036471;28;20092;-71
2023/01/26 14:21:58;;;;;;;43.10;20.45;;;27.90;99.90;;;;;;5034207;28;20020;-71
2023/01/26 14:24:41;;;;;;;41.88;21.10;;;27.90;99.90;;;;;;5036502;28;20021;-72
2023/01/26 14:27:25;;;;;;;39.00;21.45;;;27.90;99.90;;;;;;5035892;28;20029;-70
2023/01/26 14:29:52;;;;;;;34.22;21.25;;;27.90;99.90;;;;;;5036389;28;20498;-72
2023/01/26 14:32:24;;;;;;;41.80;22.02;;;27.80;99.90;;;;;;5035952;28;20466;-72
2023/01/26 14:34:59;;;;;;;43.17;22.70;;;27.80;99.90;;;;;;5035255;28;20049;-71
2023/01/26 14:37:27;;;;;;;44.80;22.85;;;27.80;99.90;;;;;;5036041;28;20415;-71
2023/01/26 14:40:29;;;;;;;51.85;23.65;;;27.80;99.90;;;;;;5036245;28;20017;-70
2023/01/26 14:42:56;;;;;;;41.30;23.37;;;27.70;99.90;;;;;;4936442;29;20027;-70
2023/01/26 14:45:31;;;;;;;41.53;23.10;;;27.70;99.90;;;;;;5016823;28;20433;-69
2023/01/26 14:48:04;;;;;;;40.47;21.98;;;27.70;99.90;;;;;;5034364;28;20025;-69
2023/01/26 14:50:31;;;;;;;43.55;23.33;;;27.70;99.90;;;;;;5035854;28;20345;-72
2023/01/26 14:53:00;;;;;;;45.67;24.10;;;27.70;99.90;;;;;;5036181;28;20056;-71
2023/01/26 14:55:29;;;;;;;44.25;22.88;;;27.70;99.90;;;;;;5035968;28;20500;-72
2023/01/26 14:57:57;;;;;;;39.25;22.95;;;27.70;99.90;;;;;;5035950;28;20036;-72
2023/01/26 15:00:32;;;;;;;44.03;23.30;;;27.70;99.90;;;;;;5035328;28;20020;-72
2023/01/26 15:03:03;;;;;;;39.28;23.75;;;27.70;99.90;;;;;;5033913;28;20024;-71
2023/01/26 15:05:36;;;;;;;37.65;20.40;;;27.70;99.90;;;;;;5035682;28;20533;-71
2023/01/26 15:08:05;;;;;;;40.78;23.08;;;27.70;99.90;;;;;;5035679;28;20478;-72
2023/01/26 15:10:36;;;;;;;44.40;22.20;;;27.60;99.90;;;;;;5035668;28;20014;-71
2023/01/26 15:13:14;;;;;;;39.67;23.75;;;27.70;99.90;;;;;;5035493;28;20022;-71
2023/01/26 15:16:01;;;;;;;42.97;22.55;;;27.70;99.90;;;;;;5034228;28;20379;-70
2023/01/26 15:18:32;;;;;;;42.72;22.30;;;27.70;99.90;;;;;;5034929;28;20370;-70
2023/01/26 15:21:05;;;;;;;43.30;22.77;;;27.70;99.90;;;;;;5035594;28;20101;-69
2023/01/26 15:23:36;;;;;;;40.05;21.48;;;27.70;99.90;;;;;;5035476;28;20359;-68
2023/01/26 15:26:09;;;;;;;43.35;22.42;;;27.70;99.90;;;;;;5035199;28;20110;-68
2023/01/26 15:28:37;;;;;;;39.55;22.95;;;27.60;99.90;;;;;;5034778;28;20049;-68
2023/01/26 15:31:04;;;;;;;44.92;23.50;;;27.60;99.90;;;;;;5034873;28;20025;-68
2023/01/26 15:33:49;;;;;;;50.00;25.77;;;27.60;99.90;;;;;;5034499;28;20088;-69
2023/01/26 15:36:26;;;;;;;38.88;23.35;;;27.60;99.90;;;;;;5033628;28;20029;-68
2023/01/26 15:39:16;;;;;;;46.65;23.98;;;27.60;99.90;;;;;;5033900;28;20020;-68
2023/01/26 15:41:45;;;;;;;43.75;22.70;;;27.50;99.90;;;;;;5033444;28;20024;-69
2023/01/26 15:44:18;;;;;;;43.80;21.00;;;27.60;99.90;;;;;;5034277;28;20076;-69
2023/01/26 15:46:45;;;;;;;47.95;22.70;;;27.60;99.90;;;;;;5034063;28;20029;-69
2023/01/26 15:49:12;;;;;;;44.53;23.70;;;27.60;99.90;;;;;;5033871;28;20021;-68
2023/01/26 15:51:39;;;;;;;39.50;22.67;;;27.60;99.90;;;;;;5033664;28;20028;-68
2023/01/26 15:54:06;;;;;;;43.53;23.33;;;27.60;99.90;;;;;;5033821;28;20064;-69
2023/01/26 15:56:32;;;;;;;34.88;20.45;;;27.60;99.90;;;;;;5033416;28;20018;-68
2023/01/26 15:58:59;;;;;;;38.88;19.00;;;27.60;99.90;;;;;;5033445;28;20068;-69
2023/01/26 16:01:26;;;;;;;37.72;19.13;;;27.60;99.90;;;;;;5033566;28;20056;-69
2023/01/26 16:03:52;;;;;;;33.33;18.85;;;27.60;99.90;;;;;;5033476;28;20021;-68
2023/01/26 16:06:27;;;;;;;32.20;18.75;;;27.60;99.90;;;;;;5033213;28;20022;-69
2023/01/26 16:08:55;;;;;;;36.15;20.90;;;27.50;99.90;;;;;;5033402;28;20416;-69
2023/01/26 16:11:27;;;;;;;33.60;19.70;;;27.60;99.90;;;;;;5033389;28;20029;-69
2023/01/26 16:13:55;;;;;;;;;;;27.60;99.90;;;;;;5033686;28;20025;-69
2023/01/26 16:16:26;;;;;;;27.48;17.65;;;27.60;99.90;;;;;;5029326;28;19909;-68
2023/01/26 16:18:56;;;;;;;34.77;19.10;;;27.60;99.90;;;;;;5033037;28;20445;-68
2023/01/26 16:21:30;;;;;;;31.73;19.55;;;27.50;99.90;;;;;;5033353;28;20041;-68
2023/01/26 16:23:56;;;;;;;29.38;18.73;;;27.60;99.90;;;;;;5030842;28;20462;-69
2023/01/26 16:26:24;;;;;;;33.95;19.60;;;27.50;99.90;;;;;;5032574;28;20139;-67
2023/01/26 16:28:51;;;;;;;42.28;19.73;;;27.50;99.90;;;;;;5033198;28;20021;-69
2023/01/26 16:31:27;;;;;;;40.63;19.05;;;27.50;99.90;;;;;;5033161;28;20100;-68
2023/01/26 16:33:54;;;;;;;30.40;18.02;;;27.50;99.90;;;;;;5032722;28;20153;-68
2023/01/26 16:36:21;;;;;;;29.33;17.73;;;27.50;99.90;;;;;;5032998;28;20381;-69
2023/01/26 16:38:48;;;;;;;28.92;17.45;;;27.50;99.90;;;;;;5032915;28;20017;-68
2023/01/26 16:41:35;;;;;;;27.23;16.73;;;27.50;99.90;;;;;;5030243;28;20036;-70
2023/01/26 16:44:02;;;;;;;34.03;18.55;;;27.50;99.90;;;;;;5031181;28;20032;-70
2023/01/26 16:46:30;;;;;;;29.50;17.70;;;27.50;99.90;;;;;;5037969;22;20052;-70
2023/01/26 16:48:56;;;;;;;35.03;19.73;;;27.40;99.90;;;;;;5010584;28;20022;-70
2023/01/26 16:51:41;;;;;;;41.92;20.40;;;27.40;99.90;;;;;;5013153;28;20025;-70
2023/01/26 16:54:07;;;;;;;38.00;19.58;;;27.30;99.90;;;;;;5011944;28;20470;-70
2023/01/26 16:56:34;;;;;;;38.33;20.88;;;27.30;99.90;;;;;;5012835;28;20037;-70
2023/01/26 16:59:00;;;;;;;33.25;19.73;;;27.30;99.90;;;;;;5012826;28;20049;-71
2023/01/26 17:01:32;;;;;;;35.88;20.42;;;27.40;99.90;;;;;;5008497;28;20022;-70
2023/01/26 17:04:00;;;;;;;36.20;19.55;;;27.30;99.90;;;;;;5012833;28;20033;-70
2023/01/26 17:06:27;;;;;;;36.63;20.20;;;27.30;99.90;;;;;;5012691;28;20036;-69
2023/01/26 17:08:53;;;;;;;33.95;19.98;;;27.30;99.90;;;;;;5012741;28;20068;-69
2023/01/26 17:11:23;;;;;;;32.90;19.85;;;27.30;99.90;;;;;;5012736;28;20026;-69
2023/01/26 17:13:50;;;;;;;36.88;20.67;;;27.30;99.90;;;;;;5012763;28;20026;-70
2023/01/26 17:16:28;;;;;;;35.20;19.33;;;27.30;99.90;;;;;;5010225;28;20076;-70
2023/01/26 17:18:55;;;;;;;32.15;20.55;;;27.30;99.90;;;;;;5012498;28;20050;-70
2023/01/26 17:21:22;;;;;;;33.60;22.83;;;27.30;99.90;;;;;;5012542;28;20022;-68
2023/01/26 17:23:54;;;;;;;39.63;22.58;;;27.30;99.90;;;;;;5010822;28;20053;-69
2023/01/26 17:26:21;;;;;;;41.15;25.30;;;27.20;99.90;;;;;;5012219;28;20026;-69
2023/01/26 17:28:51;;;;;;;37.03;25.50;;;27.30;99.90;;;;;;5012620;28;20117;-71
2023/01/26 17:31:20;;;;;;;42.05;27.50;;;27.20;99.90;;;;;;5010252;28;20018;-72
2023/01/26 17:33:49;;;;;;;52.53;28.75;;;27.20;99.90;;;;;;5012396;28;20022;-70
2023/01/26 17:36:16;;;;;;;46.17;30.95;;;27.30;99.90;;;;;;5011962;28;20061;-70
2023/01/26 17:38:43;;;;;;;48.38;30.48;;;27.20;99.90;;;;;;5016263;28;20541;-70
2023/01/26 17:41:10;;;;;;;55.85;33.28;;;27.20;99.90;;;;;;5016699;28;20441;-69
2023/01/26 17:43:36;;;;;;;52.60;34.53;;;27.20;99.90;;;;;;5014255;28;20014;-69
2023/01/26 17:46:09;;;;;;;53.42;35.83;;;27.20;99.90;;;;;;5016594;28;20054;-69
2023/01/26 17:48:38;;;;;;;55.53;37.55;;;27.20;99.90;;;;;;5014238;28;20029;-69
2023/01/26 17:51:07;;;;;;;71.80;45.28;;;27.20;99.90;;;;;;5017227;28;20109;-69
2023/01/26 17:53:39;;;;;;;62.83;40.50;;;27.20;99.90;;;;;;5017119;28;20283;-70
2023/01/26 17:56:08;;;;;;;48.38;29.95;;;27.20;99.90;;;;;;5017317;28;20033;-70
2023/01/26 17:58:35;;;;;;;35.88;26.77;;;27.10;99.90;;;;;;5017387;28;20371;-70
2023/01/26 18:01:03;;;;;;;42.42;27.83;;;27.10;99.90;;;;;;5014357;28;20121;-70
2023/01/26 18:03:30;;;;;;;42.00;25.77;;;27.10;99.90;;;;;;5016223;28;20010;-71
2023/01/26 18:05:57;;;;;;;37.33;23.55;;;27.10;99.90;;;;;;5013581;28;20026;-70
2023/01/26 18:08:25;;;;;;;38.13;25.00;;;27.10;99.90;;;;;;5016923;28;20021;-70
2023/01/26 18:10:58;;;;;;;37.72;24.77;;;27.10;99.90;;;;;;5017050;28;20370;-69
2023/01/26 18:13:25;;;;;;;47.35;27.00;;;27.10;99.90;;;;;;5016911;28;20026;-70
2023/01/26 18:15:53;;;;;;;43.40;26.77;;;27.00;99.90;;;;;;5016609;28;20378;-69
2023/01/26 18:18:22;;;;;;;38.85;25.70;;;27.00;99.90;;;;;;5016809;28;20386;-70
2023/01/26 18:20:49;;;;;;;42.80;29.65;;;27.00;99.90;;;;;;5016977;28;20032;-70
2023/01/26 18:23:16;;;;;;;43.65;27.67;;;27.00;99.90;;;;;;5017224;28;20026;-70
2023/01/26 18:25:43;;;;;;;46.67;29.60;;;27.10;99.90;;;;;;5017168;28;20021;-70
2023/01/26 18:28:11;;;;;;;44.83;29.67;;;27.10;99.90;;;;;;5016408;28;20120;-70
2023/01/26 18:30:37;;;;;;;47.88;31.00;;;27.00;99.90;;;;;;5016278;28;20368;-71
2023/01/26 18:33:04;;;;;;;43.92;29.60;;;27.10;99.90;;;;;;5015835;28;20160;-70
2023/01/26 18:35:33;;;;;;;44.95;31.13;;;27.10;99.90;;;;;;5003002;28;20073;-69
2023/01/26 18:38:00;;;;;;;51.20;32.53;;;27.10;99.90;;;;;;4997702;28;20088;-69
2023/01/26 18:40:27;;;;;;;54.35;36.92;;;27.10;99.90;;;;;;4997348;28;20033;-69
2023/01/26 18:42:54;;;;;;;48.22;34.70;;;27.00;99.90;;;;;;5009996;28;20026;-70
2023/01/26 18:45:21;;;;;;;48.83;34.85;;;27.00;99.90;;;;;;5010420;28;20137;-70
2023/01/26 18:47:49;;;;;;;45.72;32.72;;;27.00;99.90;;;;;;5014169;28;20405;-70
2023/01/26 18:50:16;;;;;;;47.35;33.72;;;27.00;99.90;;;;;;5012396;28;20084;-71
2023/01/26 18:52:42;;;;;;;53.90;34.58;;;27.00;99.90;;;;;;5014732;28;20581;-71
2023/01/26 18:55:10;;;;;;;42.88;31.70;;;27.00;99.90;;;;;;5014633;28;20057;-70
2023/01/26 18:57:36;;;;;;;47.35;31.95;;;27.00;99.90;;;;;;5012324;28;20014;-71
2023/01/26 19:00:09;;;;;;;51.80;31.17;;;26.90;99.90;;;;;;5014526;28;20045;-70
2023/01/26 19:02:37;;;;;;;47.15;29.58;;;27.00;99.90;;;;;;5011804;28;20505;-68
2023/01/26 19:05:07;;;;;;;45.90;31.30;;;26.90;99.90;;;;;;5014632;28;20086;-68
2023/01/26 19:07:34;;;;;;;39.45;28.95;;;26.90;99.90;;;;;;5014412;28;20021;-68
2023/01/26 19:10:03;;;;;;;41.20;29.13;;;26.90;99.90;;;;;;5014544;28;20382;-68
2023/01/26 19:12:30;;;;;;;53.85;31.90;;;27.00;99.90;;;;;;5014077;28;20030;-69
2023/01/26 19:14:56;;;;;;;42.80;29.58;;;26.90;99.90;;;;;;5014321;28;20025;-69
2023/01/26 19:17:23;;;;;;;44.92;28.27;;;27.00;99.90;;;;;;5014215;28;20474;-69
2023/01/26 19:19:49;;;;;;;38.35;27.00;;;26.90;99.90;;;;;;5013998;28;20389;-71